createdAt,value
2019-05-12T00:00:01.043Z,5.70
2019-05-12T00:02:28.774Z,8.20
2019-05-12T00:04:58.254Z,6.90
2019-05-12T00:07:25.915Z,3.97
2019-05-12T00:09:53.419Z,4.03
2019-05-12T00:12:21.009Z,5.43
2019-05-12T00:14:48.631Z,5.83
2019-05-12T00:17:18.632Z,6.90
2019-05-12T00:19:47.464Z,5.23
2019-05-12T00:22:18.087Z,14.30
2019-05-12T00:24:47.895Z,8.97
2019-05-12T00:27:18.012Z,11.20
2019-05-12T00:29:45.558Z,6.40
2019-05-12T00:32:13.090Z,9.97
2019-05-12T00:34:40.750Z,6.17
2019-05-12T00:37:08.401Z,6.20
2019-05-12T00:39:38.122Z,8.83
2019-05-12T00:42:07.676Z,8.33
2019-05-12T00:44:34.931Z,12.63
2019-05-12T00:47:02.485Z,8.10
2019-05-12T00:49:30.154Z,13.37
2019-05-12T00:51:58.672Z,13.30
2019-05-12T00:54:28.456Z,8.47
2019-05-12T00:56:55.842Z,8.23
2019-05-12T00:59:23.363Z,10.13
2019-05-12T01:01:50.971Z,14.03
2019-05-12T01:04:18.468Z,8.90
2019-05-12T01:06:45.987Z,10.47
2019-05-12T01:09:13.611Z,12.63
2019-05-12T01:11:41.170Z,9.00
2019-05-12T01:14:09.694Z,10.37
2019-05-12T01:16:38.495Z,8.20
2019-05-12T01:19:08.000Z,10.97
2019-05-12T01:21:37.686Z,9.53
2019-05-12T01:24:05.268Z,10.23
2019-05-12T01:26:32.862Z,11.53
2019-05-12T01:29:00.367Z,15.60
2019-05-12T01:31:31.282Z,10.27
2019-05-12T01:33:58.930Z,15.13
2019-05-12T01:36:28.717Z,10.67
2019-05-12T01:38:55.882Z,10.13
2019-05-12T01:41:23.377Z,15.90
2019-05-12T01:43:51.107Z,13.40
2019-05-12T01:46:18.653Z,13.33
2019-05-12T01:48:48.396Z,16.37
2019-05-12T01:51:17.767Z,17.97
2019-05-12T01:53:45.190Z,18.77
2019-05-12T01:56:12.708Z,14.83
2019-05-12T01:58:40.358Z,18.43
2019-05-12T02:01:08.299Z,18.40
2019-05-12T02:03:37.723Z,15.80
2019-05-12T02:06:05.277Z,25.43
2019-05-12T02:08:38.802Z,22.00
2019-05-12T02:11:24.612Z,16.10
2019-05-12T02:13:52.279Z,19.97
2019-05-12T02:16:19.773Z,16.47
2019-05-12T02:18:49.053Z,19.83
2019-05-12T02:21:18.926Z,16.93
2019-05-12T02:23:47.793Z,16.07
2019-05-12T02:26:15.809Z,19.57
2019-05-12T02:28:43.303Z,16.33
2019-05-12T02:31:10.884Z,20.50
2019-05-12T02:33:38.437Z,18.97
2019-05-12T02:36:05.917Z,18.20
2019-05-12T02:38:33.503Z,15.93
2019-05-12T02:41:04.518Z,21.77
2019-05-12T02:43:34.635Z,17.23
2019-05-12T02:46:03.947Z,18.20
2019-05-12T02:48:30.336Z,23.70
2019-05-12T02:50:57.931Z,18.60
2019-05-12T02:53:25.501Z,19.10
2019-05-12T02:55:54.548Z,16.80
2019-05-12T02:58:25.512Z,17.13
2019-05-12T03:00:55.303Z,19.20
2019-05-12T03:03:25.365Z,19.63
2019-05-12T03:05:55.035Z,23.13
2019-05-12T03:08:25.684Z,23.53
2019-05-12T03:10:54.900Z,30.50
2019-05-12T03:13:25.302Z,32.47
2019-05-12T03:15:54.786Z,26.50
2019-05-12T03:18:25.055Z,30.33
2019-05-12T03:20:50.975Z,24.27
2019-05-12T03:23:19.432Z,31.43
2019-05-12T03:25:47.490Z,32.67
2019-05-12T03:28:16.105Z,35.17
2019-05-12T03:30:48.470Z,40.97
2019-05-12T03:33:18.708Z,23.27
2019-05-12T03:35:51.775Z,34.20
2019-05-12T03:38:14.849Z,33.73
2019-05-12T03:40:44.713Z,27.57
2019-05-12T03:43:14.277Z,26.67
2019-05-12T03:45:40.838Z,29.70
2019-05-12T03:48:08.338Z,28.10
2019-05-12T03:50:36.372Z,24.43
2019-05-12T03:53:10.130Z,32.90
2019-05-12T03:55:38.040Z,30.30
2019-05-12T03:58:04.483Z,39.37
2019-05-12T04:00:35.548Z,37.07
2019-05-12T04:03:04.798Z,28.23
2019-05-12T04:05:34.550Z,24.20
2019-05-12T04:08:00.840Z,36.97
2019-05-12T04:10:28.410Z,27.53
2019-05-12T04:12:56.011Z,32.20
2019-05-12T04:15:25.647Z,28.47
2019-05-12T04:17:54.302Z,33.53
2019-05-12T04:20:25.133Z,28.33
2019-05-12T04:22:54.465Z,30.80
2019-05-12T04:25:21.008Z,24.53
2019-05-12T04:27:48.550Z,26.50
2019-05-12T04:30:16.115Z,30.10
2019-05-12T04:32:45.067Z,28.70
2019-05-12T04:35:14.869Z,32.13
2019-05-12T04:37:44.957Z,26.73
2019-05-12T04:40:14.768Z,26.67
2019-05-12T04:42:45.181Z,32.30
2019-05-12T04:45:15.719Z,36.93
2019-05-12T04:47:44.785Z,29.40
2019-05-12T04:50:11.398Z,34.20
2019-05-12T04:52:38.895Z,32.50
2019-05-12T04:55:06.568Z,30.33
2019-05-12T04:57:34.794Z,31.37
2019-05-12T05:00:05.071Z,30.80
2019-05-12T05:02:36.347Z,36.13
2019-05-12T05:05:05.149Z,31.60
2019-05-12T05:07:31.921Z,35.20
2019-05-12T05:09:59.615Z,37.80
2019-05-12T05:12:27.176Z,29.27
2019-05-12T05:14:54.967Z,25.47
2019-05-12T05:17:24.367Z,35.33
2019-05-12T05:19:53.322Z,23.20
2019-05-12T05:22:21.075Z,24.27
2019-05-12T05:24:48.812Z,26.87
2019-05-12T05:27:16.362Z,27.07
2019-05-12T05:29:44.160Z,23.10
2019-05-12T05:32:13.942Z,33.13
2019-05-12T05:34:46.294Z,24.93
2019-05-12T05:37:10.651Z,24.70
2019-05-12T05:39:47.949Z,25.43
2019-05-12T05:42:08.845Z,26.00
2019-05-12T05:44:37.983Z,30.20
2019-05-12T05:47:05.729Z,22.83
2019-05-12T05:49:34.075Z,25.30
2019-05-12T05:52:03.559Z,29.47
2019-05-12T05:54:35.227Z,22.90
2019-05-12T05:57:02.937Z,24.70
2019-05-12T05:59:31.637Z,20.93
2019-05-12T06:02:00.047Z,28.73
2019-05-12T06:04:27.592Z,15.13
2019-05-12T06:06:56.001Z,17.20
2019-05-12T06:09:23.848Z,18.87
2019-05-12T06:11:51.340Z,19.73
2019-05-12T06:14:18.923Z,19.40
2019-05-12T06:16:46.416Z,19.30
2019-05-12T06:19:14.148Z,17.30
2019-05-12T06:21:43.797Z,22.43
2019-05-12T06:24:15.617Z,18.57
2019-05-12T06:26:54.579Z,14.43
2019-05-12T06:29:11.460Z,12.83
2019-05-12T06:31:43.974Z,17.90
2019-05-12T06:34:15.375Z,15.67
2019-05-12T06:36:40.755Z,17.40
2019-05-12T06:39:10.453Z,11.20
2019-05-12T06:41:37.790Z,21.97
2019-05-12T06:44:08.894Z,13.50
2019-05-12T06:46:34.949Z,13.53
2019-05-12T06:49:10.128Z,15.00
2019-05-12T06:51:33.879Z,14.57
2019-05-12T06:54:10.020Z,14.40
2019-05-12T06:56:31.207Z,14.03
2019-05-12T06:59:00.978Z,14.03
2019-05-12T07:01:28.103Z,19.60
2019-05-12T07:04:00.479Z,14.27
2019-05-12T07:06:25.086Z,15.30
2019-05-12T07:09:03.452Z,9.70
2019-05-12T07:11:24.328Z,10.30
2019-05-12T07:14:02.131Z,10.10
2019-05-12T07:16:26.702Z,15.33
2019-05-12T07:18:50.512Z,19.47
2019-05-12T07:21:20.243Z,9.77
2019-05-12T07:23:47.567Z,11.83
2019-05-12T07:26:19.367Z,20.13
2019-05-12T07:28:44.667Z,11.20
2019-05-12T07:31:14.202Z,10.03
2019-05-12T07:33:45.674Z,8.03
2019-05-12T07:36:13.834Z,12.70
2019-05-12T07:38:43.739Z,12.00
2019-05-12T07:41:14.238Z,8.10
2019-05-12T07:43:44.387Z,12.10
2019-05-12T07:46:13.407Z,7.40
2019-05-12T07:48:46.518Z,14.03
2019-05-12T07:51:13.642Z,11.90
2019-05-12T07:53:46.792Z,9.17
2019-05-12T07:56:14.308Z,6.63
2019-05-12T07:58:47.480Z,16.30
2019-05-12T08:01:11.028Z,7.77
2019-05-12T08:03:38.678Z,9.30
2019-05-12T08:06:06.263Z,15.17
2019-05-12T08:08:34.045Z,11.53
2019-05-12T08:11:04.200Z,11.13
2019-05-12T08:13:36.282Z,13.30
2019-05-12T08:16:00.560Z,8.23
2019-05-12T08:18:30.522Z,19.47
2019-05-12T08:21:00.055Z,7.43
2019-05-12T08:23:27.201Z,6.97
2019-05-12T08:25:54.837Z,10.37
2019-05-12T08:28:28.026Z,12.47
2019-05-12T08:30:54.867Z,10.10
2019-05-12T08:33:23.855Z,6.10
2019-05-12T08:35:52.274Z,7.67
2019-05-12T08:38:20.046Z,6.60
2019-05-12T08:40:50.908Z,8.37
2019-05-12T08:43:17.026Z,5.27
2019-05-12T08:45:44.594Z,9.30
2019-05-12T08:48:19.233Z,10.30
2019-05-12T08:50:46.104Z,8.80
2019-05-12T08:53:20.331Z,15.27
2019-05-12T08:55:43.606Z,5.70
2019-05-12T08:58:26.553Z,9.27
2019-05-12T09:00:46.615Z,8.13
2019-05-12T09:03:10.846Z,10.33
2019-05-12T09:05:38.889Z,8.47
2019-05-12T09:08:07.926Z,10.87
2019-05-12T09:10:35.709Z,6.87
2019-05-12T09:13:03.987Z,10.27
2019-05-12T09:15:34.307Z,7.63
2019-05-12T09:18:01.255Z,6.53
2019-05-12T09:20:28.886Z,7.43
2019-05-12T09:23:00.698Z,13.60
2019-05-12T09:25:25.902Z,8.17
2019-05-12T09:27:54.315Z,8.97
2019-05-12T09:30:29.152Z,8.67
2019-05-12T09:32:56.764Z,10.03
2019-05-12T09:35:28.757Z,11.20
2019-05-12T09:37:53.970Z,6.90
2019-05-12T09:40:22.800Z,16.20
2019-05-12T09:42:53.234Z,5.70
2019-05-12T09:45:20.603Z,14.17
2019-05-12T09:47:48.254Z,15.57
2019-05-12T09:50:20.351Z,11.17
2019-05-12T09:52:45.593Z,7.30
2019-05-12T09:55:14.770Z,5.77
2019-05-12T09:57:45.001Z,7.70
2019-05-12T10:00:13.740Z,10.30
2019-05-12T10:02:43.496Z,7.20
2019-05-12T10:05:11.201Z,5.10
2019-05-12T10:07:38.818Z,11.30
2019-05-12T10:10:06.789Z,4.63
2019-05-12T10:12:38.849Z,10.37
2019-05-12T10:15:05.019Z,6.70
2019-05-12T10:17:33.954Z,16.23
2019-05-12T10:20:01.820Z,4.90
2019-05-12T10:22:39.951Z,5.70
2019-05-12T10:25:08.778Z,7.50
2019-05-12T10:27:36.699Z,4.67
2019-05-12T10:30:12.415Z,1.87
2019-05-12T10:32:36.117Z,3.87
2019-05-12T10:35:05.244Z,9.07
2019-05-12T10:37:33.013Z,4.23
2019-05-12T10:40:00.635Z,4.07
2019-05-12T10:42:29.475Z,8.33
2019-05-12T10:44:57.156Z,3.73
2019-05-12T10:47:24.862Z,4.93
2019-05-12T10:49:53.837Z,4.17
2019-05-12T10:52:24.437Z,3.23
2019-05-12T10:54:53.824Z,7.97
2019-05-12T10:57:22.101Z,2.80
2019-05-12T10:59:49.725Z,3.63
2019-05-12T11:02:20.451Z,3.20
2019-05-12T11:04:46.818Z,9.40
2019-05-12T11:07:15.275Z,3.40
2019-05-12T11:09:43.874Z,2.60
2019-05-12T11:12:13.794Z,7.90
2019-05-12T11:14:43.398Z,3.67
2019-05-12T11:17:13.629Z,4.77
2019-05-12T11:19:47.094Z,3.13
2019-05-12T11:22:13.741Z,2.90
2019-05-12T11:24:41.326Z,3.07
2019-05-12T11:27:09.170Z,4.00
2019-05-12T11:29:46.240Z,3.90
2019-05-12T11:32:06.310Z,3.47
2019-05-12T11:34:33.925Z,6.13
2019-05-12T11:37:03.406Z,6.93
2019-05-12T11:39:38.696Z,5.63
2019-05-12T11:42:00.589Z,7.30
2019-05-12T11:44:28.275Z,5.07
2019-05-12T11:46:55.843Z,7.23
2019-05-12T11:49:26.473Z,6.07
2019-05-12T11:51:54.328Z,7.90
2019-05-12T11:54:24.261Z,5.40
2019-05-12T11:56:53.561Z,6.50
2019-05-12T11:59:23.600Z,4.23
2019-05-12T12:01:53.989Z,4.53
2019-05-12T12:04:20.159Z,4.97
2019-05-12T12:06:47.633Z,9.43
2019-05-12T12:09:18.731Z,6.77
2019-05-12T12:11:44.602Z,6.57
2019-05-12T12:14:14.354Z,1.97
2019-05-12T12:16:49.802Z,5.20
2019-05-12T12:19:11.334Z,10.90
2019-05-12T12:21:40.491Z,5.13
2019-05-12T12:24:08.570Z,8.73
2019-05-12T12:26:37.303Z,3.60
2019-05-12T12:29:05.084Z,4.27
2019-05-12T12:31:52.178Z,4.47
2019-05-12T12:34:23.986Z,4.47
2019-05-12T12:36:49.591Z,13.30
2019-05-12T12:39:17.259Z,2.53
2019-05-12T12:41:55.355Z,4.33
2019-05-12T12:44:14.593Z,7.00
2019-05-12T12:46:44.059Z,4.03
2019-05-12T12:49:13.998Z,3.20
2019-05-12T12:51:43.516Z,4.27
2019-05-12T12:54:11.482Z,2.27
2019-05-12T12:56:39.045Z,6.90
2019-05-12T12:59:10.124Z,9.87
2019-05-12T13:01:36.306Z,2.00
2019-05-12T13:04:06.409Z,3.83
2019-05-12T13:06:34.618Z,2.57
2019-05-12T13:09:07.962Z,2.00
2019-05-12T13:11:34.797Z,1.37
2019-05-12T13:14:03.952Z,1.53
2019-05-12T13:16:36.190Z,9.73
2019-05-12T13:19:11.974Z,2.37
2019-05-12T13:21:33.666Z,3.60
2019-05-12T13:24:03.581Z,3.40
2019-05-12T13:26:31.287Z,3.47
2019-05-12T13:28:59.222Z,4.73
2019-05-12T13:31:26.675Z,3.47
2019-05-12T13:33:55.246Z,2.10
2019-05-12T13:36:24.273Z,0.97
2019-05-12T13:38:52.028Z,2.60
2019-05-12T13:41:20.049Z,9.83
2019-05-12T13:43:54.792Z,3.63
2019-05-12T13:46:17.173Z,0.93
2019-05-12T13:48:44.800Z,2.10
2019-05-12T13:51:15.622Z,5.00
2019-05-12T13:53:46.492Z,20.37
2019-05-12T13:56:13.524Z,6.03
2019-05-12T13:58:45.388Z,2.50
2019-05-12T14:01:19.067Z,2.10
2019-05-12T14:03:48.678Z,3.20
2019-05-12T14:06:37.445Z,0.60
2019-05-12T14:09:00.793Z,1.50
2019-05-12T14:11:28.409Z,3.40
2019-05-12T14:13:55.899Z,6.80
2019-05-12T14:16:24.003Z,1.83
2019-05-12T14:18:57.119Z,3.37
2019-05-12T14:21:21.034Z,1.63
2019-05-12T14:23:48.789Z,3.03
2019-05-12T14:26:16.296Z,9.83
2019-05-12T14:28:45.616Z,3.03
2019-05-12T14:31:26.620Z,6.27
2019-05-12T14:33:44.206Z,3.33
2019-05-12T14:36:15.798Z,1.30
2019-05-12T14:38:41.466Z,3.70
2019-05-12T14:41:11.552Z,4.63
2019-05-12T14:43:38.533Z,2.20
2019-05-12T14:46:10.138Z,1.33
2019-05-12T14:48:40.407Z,3.27
2019-05-12T14:51:04.999Z,2.53
2019-05-12T14:53:32.994Z,3.20
2019-05-12T14:56:03.890Z,6.23
2019-05-12T14:58:33.693Z,3.03
2019-05-12T15:01:00.741Z,0.93
2019-05-12T15:03:28.219Z,1.07
2019-05-12T15:05:56.021Z,1.37
2019-05-12T15:08:35.560Z,2.23
2019-05-12T15:10:53.429Z,0.80
2019-05-12T15:13:21.086Z,6.73
2019-05-12T15:15:50.143Z,3.27
2019-05-12T15:18:18.172Z,2.63
2019-05-12T15:20:49.758Z,0.97
2019-05-12T15:23:16.465Z,7.00
2019-05-12T15:25:44.009Z,0.70
2019-05-12T15:28:11.481Z,2.07
2019-05-12T15:30:39.002Z,3.57
2019-05-12T15:33:06.514Z,0.90
2019-05-12T15:35:34.495Z,3.30
2019-05-12T15:38:03.733Z,1.50
2019-05-12T15:40:31.501Z,1.33
2019-05-12T15:43:00.447Z,6.80
2019-05-12T15:45:28.433Z,0.77
2019-05-12T15:47:56.021Z,1.80
2019-05-12T15:50:26.133Z,1.17
2019-05-12T15:52:54.650Z,3.83
2019-05-12T15:55:25.479Z,3.27
2019-05-12T15:57:51.746Z,1.60
2019-05-12T16:00:19.349Z,1.50
2019-05-12T16:02:46.846Z,4.93
2019-05-12T16:05:14.809Z,4.73
2019-05-12T16:07:47.292Z,3.43
2019-05-12T16:10:14.430Z,2.70
2019-05-12T16:12:43.475Z,3.97
2019-05-12T16:15:17.339Z,3.80
2019-05-12T16:17:43.830Z,1.63
2019-05-12T16:20:11.326Z,4.53
2019-05-12T16:22:44.349Z,2.00
2019-05-12T16:25:08.475Z,3.17
2019-05-12T16:27:37.312Z,3.00
2019-05-12T16:30:05.909Z,3.93
2019-05-12T16:32:43.106Z,4.83
2019-05-12T16:35:06.903Z,1.00
2019-05-12T16:37:35.187Z,2.60
2019-05-12T16:40:04.325Z,2.83
2019-05-12T16:42:33.447Z,2.10
2019-05-12T16:45:06.019Z,3.33
2019-05-12T16:47:32.847Z,2.60
2019-05-12T16:50:00.035Z,3.30
2019-05-12T16:52:32.497Z,2.17
2019-05-12T16:54:57.081Z,4.93
2019-05-12T16:57:24.607Z,4.00
2019-05-12T16:59:55.542Z,2.23
2019-05-12T17:02:23.533Z,1.67
2019-05-12T17:04:51.110Z,3.57
2019-05-12T17:07:20.903Z,1.40
2019-05-12T17:09:48.646Z,1.20
2019-05-12T17:12:16.221Z,1.60
2019-05-12T17:14:48.213Z,1.90
2019-05-12T17:17:14.458Z,0.80
2019-05-12T17:19:43.366Z,1.90
2019-05-12T17:22:13.355Z,1.17
2019-05-12T17:24:40.834Z,7.93
2019-05-12T17:27:09.370Z,1.23
2019-05-12T17:29:37.991Z,2.20
2019-05-12T17:32:05.494Z,5.67
2019-05-12T17:34:33.970Z,5.43
2019-05-12T17:37:03.807Z,4.07
2019-05-12T17:39:37.278Z,2.17
2019-05-12T17:42:01.602Z,1.43
2019-05-12T17:44:31.353Z,2.47
2019-05-12T17:46:58.683Z,1.07
2019-05-12T17:49:30.822Z,4.60
2019-05-12T17:51:57.288Z,3.03
2019-05-12T17:54:26.541Z,1.67
2019-05-12T17:56:56.699Z,1.03
2019-05-12T17:59:29.264Z,1.70
2019-05-12T18:01:53.749Z,1.60
2019-05-12T18:04:26.604Z,13.90
2019-05-12T18:06:53.508Z,4.43
2019-05-12T18:09:23.511Z,0.97
2019-05-12T18:11:54.255Z,1.17
2019-05-12T18:14:20.121Z,2.63
2019-05-12T18:16:53.651Z,0.73
2019-05-12T18:19:25.250Z,2.03
2019-05-12T18:21:54.923Z,2.40
2019-05-12T18:24:24.098Z,1.73
2019-05-12T18:26:56.624Z,1.17
2019-05-12T18:29:23.529Z,7.80
2019-05-12T18:31:52.782Z,2.63
2019-05-12T18:34:20.117Z,0.80
2019-05-12T18:36:49.087Z,2.10
2019-05-12T18:39:17.073Z,0.87
2019-05-12T18:41:44.604Z,2.20
2019-05-12T18:44:15.937Z,8.63
2019-05-12T18:46:44.957Z,5.37
2019-05-12T18:49:12.834Z,0.90
2019-05-12T18:51:40.396Z,2.33
2019-05-12T18:54:10.446Z,0.93
2019-05-12T18:56:37.460Z,1.50
2019-05-12T18:59:11.594Z,1.30
2019-05-12T19:01:35.032Z,2.10
2019-05-12T19:04:03.781Z,4.27
2019-05-12T19:06:33.685Z,12.80
2019-05-12T19:09:04.165Z,0.90
2019-05-12T19:11:41.767Z,0.57
2019-05-12T19:14:04.657Z,1.40
2019-05-12T19:16:32.211Z,1.53
2019-05-12T19:18:59.778Z,0.63
2019-05-12T19:21:27.389Z,1.37
2019-05-12T19:23:56.262Z,1.80
2019-05-12T19:26:23.833Z,2.93
2019-05-12T19:28:53.952Z,3.13
2019-05-12T19:31:21.965Z,2.93
2019-05-12T19:34:03.098Z,9.23
2019-05-12T19:36:18.893Z,2.30
2019-05-12T19:38:46.532Z,11.07
2019-05-12T19:41:14.173Z,4.43
2019-05-12T19:43:45.387Z,1.70
2019-05-12T19:46:13.458Z,1.27
2019-05-12T19:48:48.000Z,3.10
2019-05-12T19:51:20.778Z,3.50
2019-05-12T19:53:39.595Z,0.90
2019-05-12T19:56:07.155Z,7.77
2019-05-12T19:58:35.847Z,2.60
2019-05-12T20:01:03.733Z,1.33
2019-05-12T20:03:33.494Z,1.40
2019-05-12T20:06:01.463Z,6.60
2019-05-12T20:08:29.036Z,3.43
2019-05-12T20:10:56.491Z,1.00
2019-05-12T20:13:29.728Z,2.13
2019-05-12T20:15:54.600Z,3.07
2019-05-12T20:18:23.666Z,2.90
2019-05-12T20:20:54.099Z,1.50
2019-05-12T20:23:24.343Z,2.63
2019-05-12T20:25:53.337Z,6.03
2019-05-12T20:28:20.737Z,8.47
2019-05-12T20:30:52.356Z,3.37
2019-05-12T20:33:17.909Z,6.33
2019-05-12T20:35:49.191Z,5.37
2019-05-12T20:38:15.173Z,1.60
2019-05-12T20:40:43.269Z,1.60
2019-05-12T20:43:14.445Z,1.60
2019-05-12T20:45:42.158Z,1.03
2019-05-12T20:48:10.034Z,1.50
2019-05-12T20:50:38.838Z,3.03
2019-05-12T20:53:06.629Z,3.80
2019-05-12T20:55:36.622Z,1.97
2019-05-12T20:58:04.499Z,1.07
2019-05-12T21:00:33.679Z,2.20
2019-05-12T21:03:01.321Z,0.80
2019-05-12T21:05:28.801Z,3.80
2019-05-12T21:08:03.329Z,1.47
2019-05-12T21:10:29.737Z,1.90
2019-05-12T21:12:56.547Z,0.90
2019-05-12T21:15:27.476Z,5.00
2019-05-12T21:18:02.683Z,2.10
2019-05-12T21:20:24.271Z,0.80
2019-05-12T21:22:53.897Z,1.70
2019-05-12T21:25:23.322Z,2.17
2019-05-12T21:27:53.792Z,1.13
2019-05-12T21:30:20.393Z,1.93
2019-05-12T21:32:59.171Z,4.87
2019-05-12T21:35:22.462Z,1.20
2019-05-12T21:37:48.598Z,3.57
2019-05-12T21:40:24.165Z,5.70
2019-05-12T21:42:46.701Z,2.27
2019-05-12T21:45:14.882Z,1.30
2019-05-12T21:47:44.531Z,1.80
2019-05-12T21:50:14.088Z,2.77
2019-05-12T21:52:44.291Z,1.83
2019-05-12T21:55:15.389Z,1.70
2019-05-12T21:57:43.560Z,4.73
2019-05-12T22:00:20.195Z,1.00
2019-05-12T22:02:49.809Z,1.10
2019-05-12T22:05:23.619Z,1.93
2019-05-12T22:07:47.000Z,3.63
2019-05-12T22:10:15.581Z,4.50
2019-05-12T22:12:44.169Z,1.90
2019-05-12T22:15:21.334Z,1.10
2019-05-12T22:18:04.281Z,3.53
2019-05-12T22:20:31.714Z,7.20
2019-05-12T22:23:09.082Z,1.03
2019-05-12T22:25:30.245Z,0.83
2019-05-12T22:27:59.310Z,3.17
2019-05-12T22:30:28.636Z,2.20
2019-05-12T22:32:59.380Z,4.30
2019-05-12T22:35:25.874Z,1.00
2019-05-12T22:37:53.611Z,4.70
2019-05-12T22:40:23.467Z,2.17
2019-05-12T22:42:56.131Z,2.43
2019-05-12T22:45:20.132Z,3.80
2019-05-12T22:47:49.347Z,1.17
2019-05-12T22:50:16.957Z,5.80
2019-05-12T22:52:49.334Z,5.73
2019-05-12T22:55:14.127Z,1.60
2019-05-12T22:57:43.502Z,1.00
2019-05-12T23:00:13.459Z,3.67
2019-05-12T23:02:44.642Z,4.13
2019-05-12T23:05:19.053Z,2.03
2019-05-12T23:07:43.818Z,2.40
2019-05-12T23:10:14.277Z,1.20
2019-05-12T23:12:41.379Z,3.33
2019-05-12T23:15:09.344Z,2.00
2019-05-12T23:17:39.045Z,1.33
2019-05-12T23:20:06.615Z,3.13
2019-05-12T23:22:35.095Z,0.87
2019-05-12T23:28:08.393Z,1.07
2019-05-12T23:30:31.608Z,1.33
2019-05-12T23:32:59.273Z,0.77
2019-05-12T23:35:28.184Z,1.30
2019-05-12T23:37:56.169Z,0.80
2019-05-12T23:40:23.736Z,2.83
2019-05-12T23:42:53.455Z,1.50
2019-05-12T23:45:21.044Z,1.20
2019-05-12T23:47:48.501Z,7.50
2019-05-12T23:50:16.085Z,1.40
2019-05-12T23:52:44.234Z,1.20
2019-05-12T23:55:13.733Z,0.73
2019-05-12T23:57:41.440Z,2.63
